Metar Cercanos

 

LEPA - Palma De Mallorc, Spain
Distance from station: ONO 38km
Actualización: Sat, 15-May-2021 6:00am CEST
Few Clouds
Few Clouds
 Viento del calm
Viento: Calma
Temperatura: 10°C
Rocío: 9°C
Humedad: 94%
Barómetro: 1016 hPa
Clouds: Few Clouds
Visibility: 10 km
Cloud details: Few Clouds 914 m
2021/05/15 04:00 LEPA 150400Z 00000KT 9999 FEW030 10/09 Q1016 NOSIG
LEMH - Mahon/Menorca Is, Spain
Distance from station: ENE 105km
Actualización: Sat, 15-May-2021 6:00am CEST
Few Clouds
Few Clouds
 Viento del SO
Viento: SO 9 km/h
Temperatura: 14°C
Rocío: 11°C
Humedad: 82%
Barómetro: 1016 hPa
Clouds: Few Clouds
Visibility: 10 km
Cloud details: Few Clouds 396 m
2021/05/15 04:00 LEMH 150400Z 23005KT 9999 FEW013 14/11 Q1016
 
LEIB - Ibiza/Es Codola, Spain
Distance from station: OSO 165km
Actualización: Sat, 15-May-2021 6:00am CEST
Despejado
Despejado
 Viento del SSO
Viento: SSO 13 km/h
Temperatura: 18°C
Rocío: 16°C
Humedad: 88%
Barómetro: 1016 hPa
Resumen: Despejado
Visibility: greater than 10 km
2021/05/15 04:00 LEIB 150400Z 21007KT 170V260 CAVOK 18/16 Q1016 NOSIG
LEBL - Barcelona Airpor, Spain
Distance from station: NNO 225km
Actualización: Sat, 15-May-2021 6:00am CEST
Few Clouds
Few Clouds
 Viento del NNO
Viento: NNO 7 km/h
Temperatura: 13°C
Rocío: 10°C
Humedad: 82%
Barómetro: 1014 hPa
Clouds: Few Clouds
Visibility: 10 km
Cloud details: Few Clouds 305 m
2021/05/15 04:00 LEBL 150400Z 34004KT 260V020 9999 FEW010 13/10 Q1014 NOSIG
 
LEVC - Valencia (civ/Mi, Spain
Distance from station: NO 188km
Actualización: Sat, 15-May-2021 6:00am CEST
Despejado
Despejado
 Viento del O
Viento: O 6 km/h
Temperatura: 13°C
Rocío: 10°C
Humedad: 82%
Barómetro: 1015 hPa
Resumen: Despejado
Visibility: greater than 10 km
2021/05/15 04:00 LEVC 150400Z 28003KT CAVOK 13/10 Q1015 NOSIG
LEGE - Gerona/Costa Bra, Spain
Distance from station: N 276km
Actualización: Sat, 15-May-2021 6:00am CEST
Few Clouds
Few Clouds
 Viento del varies
Viento: varies 2 km/h
Temperatura: 9°C
Rocío: 9°C
Humedad: 100%
Barómetro: 1014 hPa
Clouds: Few Clouds
Visibility: 10 km
Cloud details: Few Clouds 427 m
2021/05/15 04:00 LEGE 150400Z VRB01KT 9999 FEW014 09/09 Q1014
 
LEAL - Alicante/El Alte, Spain
Distance from station: OSO 344km
Actualización: Sat, 15-May-2021 6:00am CEST
Despejado
Despejado
 Viento del O
Viento: O 9 km/h
Temperatura: 14°C
Rocío: 12°C
Humedad: 88%
Barómetro: 1016 hPa
Resumen: Despejado
Visibility: greater than 10 km
2021/05/15 04:00 LEAL 150400Z 27005KT CAVOK 14/12 Q1016 NOSIG
LEAM - Almeria Airport, Spain
Distance from station: SSO 56km
Actualización: Sat, 15-May-2021 6:00am CEST
Despejado
Despejado
 Viento del varies
Viento: varies 4 km/h
Temperatura: 17°C
Rocío: 13°C
Humedad: 77%
Barómetro: 1016 hPa
Resumen: Despejado
Visibility: greater than 10 km
2021/05/15 04:00 LEAM 150400Z VRB02KT CAVOK 17/13 Q1016
 
LEZG - Zaragoza (mil/Ci, Spain
Distance from station: NO 431km
Actualización: Sat, 15-May-2021 6:00am CEST
Despejado
Despejado
 Viento del ESE
Viento: ESE 9 km/h
Temperatura: 13°C
Rocío: 9°C
Humedad: 77%
Barómetro: 1014 hPa
Resumen: Despejado
Visibility: greater than 10 km
2021/05/15 04:00 LEZG 150400Z 12005KT CAVOK 13/09 Q1014
LEMD - Madrid/Barajas, Spain
Distance from station: ONO 234km
Actualización: Sat, 15-May-2021 6:00am CEST
Despejado
Despejado
 Viento del SSE
Viento: SSE 9 km/h
Temperatura: 11°C
Rocío: 7°C
Humedad: 77%
Barómetro: 1016 hPa
Resumen: Despejado
Visibility: greater than 10 km
2021/05/15 04:00 LEMD 150400Z 15005KT CAVOK 11/07 Q1016 NOSIG
 
LEGR - Granada Airport, Spain
Distance from station: OSO 62km
Actualización: Sat, 15-May-2021 6:00am CEST
Despejado
Despejado
 Viento del calm
Viento: Calma
Temperatura: 9°C
Rocío: 6°C
Humedad: 82%
Barómetro: 1018 hPa
Resumen: Despejado
Visibility: greater than 10 km
2021/05/15 04:00 LEGR 150400Z 00000KT CAVOK 09/06 Q1018
LEMG - Malaga (civ/Mil), Spain
Distance from station: OSO 227km
Actualización: Sat, 15-May-2021 6:00am CEST
Despejado
Despejado
 Viento del NO
Viento: NO 7 km/h
Temperatura: 15°C
Rocío: 11°C
Humedad: 77%
Barómetro: 1017 hPa
Resumen: Despejado
Visibility: greater than 10 km
2021/05/15 04:00 LEMG 150400Z 31004KT 280V340 CAVOK 15/11 Q1017 NOSIG
 
LEZL - Sevilla (civ/Mil, Spain
Distance from station: S 318km
Actualización: Sat, 15-May-2021 6:00am CEST
Despejado
Despejado
 Viento del ENE
Viento: ENE 7 km/h
Temperatura: 16°C
Rocío: 10°C
Humedad: 68%
Barómetro: 1017 hPa
Resumen: Despejado
Visibility: greater than 10 km
2021/05/15 04:00 LEZL 150400Z 06004KT 030V130 CAVOK 16/10 Q1017 NOSIG
LEVT - Vitoria, Spain
Distance from station: NO 226km
Actualización: Sat, 15-May-2021 6:00am CEST
Lluvia débil, Parcialmente nuboso
Lluvia débil, Parcialmente nuboso
 Viento del varies
Viento: varies 4 km/h
Temperatura: 11°C
Rocío: 10°C
Humedad: 94%
Barómetro: 1013 hPa
Resumen: Lluvia débil
Clouds: Parcialmente nuboso
Visibility: 10 km
Cloud details: Parcialmente nuboso 2134 m
2021/05/15 04:00 LEVT 150400Z VRB02KT 9999 -RA SCT070 11/10 Q1013
 
LEBB - Bilbao/Sondica, Spain
Distance from station: NNO 235km
Actualización: Sat, 15-May-2021 6:00am CEST
Parcialmente nuboso
Parcialmente nuboso
 Viento del ESE
Viento: ESE 7 km/h
Temperatura: 13°C
Rocío: 11°C
Humedad: 88%
Barómetro: 1012 hPa
Clouds: Parcialmente nuboso
Visibility: 10 km
Cloud details: Parcialmente nuboso 1829 m
2021/05/15 04:00 LEBB 150400Z 12004KT 080V150 9999 SCT060 13/11 Q1012 NOSIG
LESO - San Sebastian/Fu, Spain
Distance from station: N 231km
Actualización: Sat, 15-May-2021 6:00am CEST
Lluvia débil, Parcialmente nuboso
Lluvia débil, Parcialmente nuboso
 Viento del S
Viento: S 7 km/h
Temperatura: 13°C
Rocío: 12°C
Humedad: 94%
Barómetro: 1012 hPa
Resumen: Lluvia débil
Clouds: Parcialmente nuboso
Visibility: 10 km
Cloud details: Parcialmente nuboso 1036 m
Parcialmente nuboso 1524 m
2021/05/15 04:00 LESO 150400Z 18004KT 9999 -RA SCT034 SCT050 13/12 Q1012
 
LEVD - Valladolid(Mil/C, Spain
Distance from station: ONO 239km
Actualización: Sat, 15-May-2021 6:00am CEST
Despejado
Despejado
 Viento del OSO
Viento: OSO 20 km/h
Temperatura: 10°C
Sensación frio: 7°C
Rocío: 8°C
Humedad: 88%
Barómetro: 1016 hPa
Resumen: Despejado
Visibility: greater than 10 km
2021/05/15 04:00 LEVD 150400Z AUTO 25011KT CAVOK 10/08 Q1016
LESA - Salamanca (civ/M, Spain
Distance from station: ONO 349km
Actualización: Sat, 15-May-2021 6:00am CEST

 Viento del O
Viento: O 13 km/h
Temperatura: 9°C
Sensación frio: 7°C
Rocío: 8°C
Humedad: 94%
Barómetro: 1018 hPa
Visibility: 10 km
2021/05/15 04:00 LESA 150400Z AUTO 26007KT 9999 ////// 09/08 Q1018
 
LEXJ - Santander/Paraya, Spain
Distance from station: NNO 247km
Actualización: Sat, 15-May-2021 6:00am CEST
Muy nuboso
Muy nuboso
 Viento del calm
Viento: Calma
Temperatura: 13°C
Rocío: 12°C
Humedad: 94%
Barómetro: 1012 hPa
Clouds: Muy nuboso
Visibility: 10 km
Cloud details: Muy nuboso 2073 m
2021/05/15 04:00 LEXJ 150400Z 00000KT 9999 BKN068 13/12 Q1012
LEAS - Asturias/Aviles, Spain
Distance from station: NO 214km
Actualización: Sat, 15-May-2021 6:00am CEST
Lluvia débil, Mist, Cubierto
Lluvia débil, Mist, Cubierto
 Viento del NNO
Viento: NNO 15 km/h
Temperatura: 13°C
Rocío: 13°C
Humedad: 100%
Barómetro: 1011 hPa
Resumen: Lluvia débil, Mist
Clouds: Cubierto
Visibility: 3 km
Cloud details: Cubierto 61 m
2021/05/15 04:00 LEAS 150400Z 33008KT 300V010 3000 -RA BR VV002 13/13 Q1011 TEMPO 7000 NSW BKN010
 
LECO - La Coruna/Alvedr, Spain
Distance from station: ONO 222km
Actualización: Sat, 15-May-2021 6:20am CEST
Lluvia débil, Partial, Niebla, Muy nuboso
Lluvia débil, Partial, Niebla, Muy nuboso
 Viento del calm
Viento: Calma
Temperatura: 14°C
Rocío: 14°C
Humedad: 100%
Barómetro: 1011 hPa
Resumen: Lluvia débil, Partial, Niebla
Clouds: Muy nuboso
Visibility: 1 km
Cloud details: Few Clouds 91 m
Parcialmente nuboso 518 m
Muy nuboso 732 m
2021/05/15 04:20 LECO 150420Z 00000KT 0800 R21/0800U R03/P2000 -RA PRFG FEW003 SCT017 BKN024 14/14 Q1011 TEMPO 0600 FG BKN003
LEVX - Vigo/Peinador, Spain
Distance from station: O 214km
Actualización: Sat, 15-May-2021 6:00am CEST
Lluvia débil, Nearby fog, Muy nuboso
Lluvia débil, Nearby fog, Muy nuboso
 Viento del S
Viento: S 13 km/h
Temperatura: 14°C
Rocío: 13°C
Humedad: 94%
Barómetro: 1015 hPa
Resumen: Lluvia débil, Nearby fog
Clouds: Muy nuboso
Visibility: 3 km
Cloud details: Few Clouds 61 m
Muy nuboso 213 m
Muy nuboso 396 m
2021/05/15 04:00 LEVX 150400Z 19007KT 130V240 3000 -RA VCFG FEW002 BKN007 BKN013 14/13 Q1015 TEMPO 0400 FG VV001